Time;durP1;ratioP1;P1;durP2;ratioP2;P2;SDS_P1;SDS_P2;PMS_P1;PMS_P2;Temp;Humidity;BMP_temperature;BMP_pressure;BME280_temperature;BME280_humidity;BME280_pressure;Samples;Min_cycle;Max_cycle;Signal;HPM_P1;HPM_P2
2022/01/02 00:00:06;;;;;;;13.23;6.07;;;12.70;99.90;;;;;;5016962;28;20124;-82
2022/01/02 00:02:33;;;;;;;9.65;6.10;;;12.60;99.90;;;;;;5033052;28;20053;-82
2022/01/02 00:05:09;;;;;;;17.17;6.28;;;12.60;99.90;;;;;;5033459;28;20508;-82
2022/01/02 00:07:42;;;;;;;10.77;6.15;;;12.60;99.90;;;;;;5033737;28;20358;-82
2022/01/02 00:10:08;;;;;;;9.75;5.97;;;12.60;99.90;;;;;;5033506;28;20136;-82
2022/01/02 00:12:35;;;;;;;11.90;6.50;;;12.60;99.90;;;;;;5033179;28;20053;-82
2022/01/02 00:15:06;;;;;;;10.25;5.45;;;12.50;99.90;;;;;;5033068;28;20439;-83
2022/01/02 00:17:33;;;;;;;17.40;7.07;;;12.60;99.90;;;;;;5033310;28;20489;-82
2022/01/02 00:20:08;;;;;;;15.88;6.30;;;12.60;99.90;;;;;;5033153;28;20049;-82
2022/01/02 00:22:37;;;;;;;17.90;6.45;;;12.50;99.90;;;;;;5034196;28;20178;-82
2022/01/02 00:25:08;;;;;;;14.00;7.60;;;12.60;99.90;;;;;;5033328;28;20050;-82
2022/01/02 00:27:37;;;;;;;20.55;7.97;;;12.60;99.90;;;;;;5017051;28;20045;-81
2022/01/02 00:30:05;;;;;;;16.38;8.45;;;12.70;99.90;;;;;;5033259;28;20052;-81
2022/01/02 00:32:33;;;;;;;16.25;7.75;;;12.80;99.90;;;;;;5033185;28;20493;-82
2022/01/02 00:35:00;;;;;;;16.58;8.13;;;12.70;99.90;;;;;;5033015;28;20046;-82
2022/01/02 00:37:26;;;;;;;20.83;7.97;;;12.80;99.90;;;;;;5033142;28;20456;-82
2022/01/02 00:39:52;;;;;;;22.88;8.25;;;12.70;99.90;;;;;;5032903;28;20077;-82
2022/01/02 00:42:29;;;;;;;23.83;8.70;;;12.70;99.90;;;;;;5033024;28;20522;-82
2022/01/02 00:45:03;;;;;;;16.45;8.20;;;12.70;99.90;;;;;;5032825;28;20068;-83
2022/01/02 00:47:31;;;;;;;19.00;9.23;;;12.80;99.90;;;;;;5033147;28;20129;-82
2022/01/02 00:50:20;;;;;;;21.05;9.27;;;12.80;99.90;;;;;;5032912;28;20046;-82
2022/01/02 00:52:48;;;;;;;22.30;8.95;;;12.70;99.90;;;;;;5032890;28;20053;-82
2022/01/02 00:55:21;;;;;;;19.25;8.25;;;12.70;99.90;;;;;;5032843;28;20485;-82
2022/01/02 00:58:07;;;;;;;25.20;9.57;;;12.70;99.90;;;;;;5033092;28;20045;-83
2022/01/02 01:00:34;;;;;;;20.25;8.52;;;12.80;99.90;;;;;;5032579;28;20513;-82
2022/01/02 01:03:05;;;;;;;25.17;10.13;;;12.70;99.90;;;;;;5032397;28;20054;-82
2022/01/02 01:05:34;;;;;;;23.73;9.45;;;12.80;99.90;;;;;;5032796;28;20393;-82
2022/01/02 01:08:02;;;;;;;26.08;10.82;;;12.70;99.90;;;;;;5032717;28;20049;-82
2022/01/02 01:10:31;;;;;;;27.98;10.10;;;12.60;99.90;;;;;;5032645;28;20053;-82
2022/01/02 01:13:01;;;;;;;27.13;10.65;;;12.70;99.90;;;;;;5033203;28;20188;-82
2022/01/02 01:15:29;;;;;;;24.30;9.77;;;12.60;99.90;;;;;;5032188;28;20175;-82
2022/01/02 01:17:56;;;;;;;24.73;11.00;;;12.80;99.90;;;;;;5016531;28;20056;-82
2022/01/02 01:20:24;;;;;;;19.13;9.15;;;12.70;99.90;;;;;;5032414;28;20052;-82
2022/01/02 01:22:50;;;;;;;27.35;10.52;;;12.70;99.90;;;;;;5034981;28;20565;-83
2022/01/02 01:25:18;;;;;;;33.05;11.48;;;12.80;99.90;;;;;;5036704;28;20085;-82
2022/01/02 01:27:45;;;;;;;23.95;10.25;;;12.80;99.90;;;;;;5020526;28;20132;-82
2022/01/02 01:30:12;;;;;;;27.75;10.93;;;12.70;99.90;;;;;;5036457;28;20047;-82
2022/01/02 01:32:38;;;;;;;27.35;12.25;;;12.70;99.90;;;;;;5020278;28;20361;-82
2022/01/02 01:35:05;;;;;;;23.15;10.93;;;12.80;99.90;;;;;;5036457;28;20099;-82
2022/01/02 01:37:31;;;;;;;21.23;10.57;;;12.70;99.90;;;;;;5036401;28;20041;-82
2022/01/02 01:39:57;;;;;;;26.25;10.60;;;12.80;99.90;;;;;;5003445;28;20064;-82
2022/01/02 01:42:36;;;;;;;21.77;10.63;;;12.80;99.90;;;;;;5020787;28;20056;-82
2022/01/02 01:47:33;;;;;;;23.80;11.25;;;12.60;99.90;;;;;;5036261;28;20145;-82
2022/01/02 01:49:59;;;;;;;22.40;10.55;;;12.70;99.90;;;;;;5019761;28;20049;-82
2022/01/02 01:52:25;;;;;;;22.75;9.00;;;12.70;99.90;;;;;;5036221;28;20087;-82
2022/01/02 01:54:51;;;;;;;20.27;9.70;;;12.60;99.90;;;;;;5035548;28;20053;-82
2022/01/02 01:57:17;;;;;;;24.10;10.75;;;12.60;99.90;;;;;;5036625;28;20122;-82
2022/01/02 01:59:46;;;;;;;24.75;11.25;;;12.60;99.90;;;;;;5035867;28;20052;-82
2022/01/02 02:02:13;;;;;;;33.80;13.15;;;12.70;99.90;;;;;;5019155;28;20053;-82
2022/01/02 02:04:39;;;;;;;26.40;10.88;;;12.70;99.90;;;;;;5036244;28;20041;-82
2022/01/02 02:07:04;;;;;;;32.17;13.13;;;12.60;99.90;;;;;;5003159;28;20094;-82
2022/01/02 02:09:42;;;;;;;28.77;12.55;;;12.70;99.90;;;;;;5035916;28;20057;-82
2022/01/02 02:12:08;;;;;;;26.80;12.40;;;12.60;99.90;;;;;;5021214;28;20087;-81
2022/01/02 02:14:36;;;;;;;36.13;14.05;;;12.60;99.90;;;;;;5035799;28;20104;-82
2022/01/02 02:17:02;;;;;;;39.22;15.77;;;12.60;99.90;;;;;;5035313;28;20481;-82
2022/01/02 02:19:27;;;;;;;31.17;13.63;;;12.50;99.90;;;;;;5002772;28;20052;-82
2022/01/02 02:21:53;;;;;;;32.30;13.88;;;12.50;99.90;;;;;;5019642;28;20049;-81
2022/01/02 02:24:19;;;;;;;31.10;12.85;;;12.40;99.90;;;;;;5019158;28;20049;-82
2022/01/02 02:26:44;;;;;;;37.97;14.82;;;12.40;99.90;;;;;;5035496;28;20103;-82
2022/01/02 02:29:11;;;;;;;31.75;14.48;;;12.40;99.90;;;;;;4986529;28;20486;-82
2022/01/02 02:31:36;;;;;;;29.98;12.18;;;12.50;99.90;;;;;;5035417;28;20120;-82
2022/01/02 02:34:02;;;;;;;44.65;15.20;;;12.50;99.90;;;;;;5034650;28;20469;-81
2022/01/02 02:36:28;;;;;;;32.85;12.52;;;12.50;99.90;;;;;;5035694;28;20492;-81
2022/01/02 02:38:53;;;;;;;26.58;12.25;;;12.50;99.90;;;;;;5019910;28;20045;-81
2022/01/02 02:41:19;;;;;;;25.75;11.32;;;12.50;99.90;;;;;;5003232;28;20069;-82
2022/01/02 02:43:55;;;;;;;24.85;12.23;;;12.40;99.90;;;;;;5019324;28;20493;-82
2022/01/02 02:49:05;;;;;;;25.73;10.68;;;12.40;99.90;;;;;;5035643;28;20133;-82
2022/01/02 02:54:07;;;;;;;21.23;10.68;;;12.30;99.90;;;;;;5035794;28;20045;-81
2022/01/02 02:56:45;;;;;;;30.05;12.20;;;12.40;99.90;;;;;;5035575;28;20397;-81
2022/01/02 02:59:11;;;;;;;31.20;12.45;;;12.30;99.90;;;;;;5035200;28;20408;-81
2022/01/02 03:01:38;;;;;;;31.90;12.23;;;12.30;99.90;;;;;;5034398;28;20049;-81
2022/01/02 03:04:04;;;;;;;32.92;13.60;;;12.30;99.90;;;;;;5034863;28;20080;-82
2022/01/02 03:06:29;;;;;;;29.15;13.00;;;12.40;99.90;;;;;;5002094;28;20496;-82
2022/01/02 03:08:59;;;;;;;20.85;10.85;;;12.40;99.90;;;;;;5035224;28;20117;-82
2022/01/02 03:11:25;;;;;;;25.50;11.75;;;12.40;99.90;;;;;;5019396;28;20049;-82
2022/01/02 03:13:52;;;;;;;29.75;13.75;;;12.40;99.90;;;;;;5035053;28;20424;-82
2022/01/02 03:16:18;;;;;;;26.50;11.57;;;12.40;99.90;;;;;;5034286;28;20057;-82
2022/01/02 03:18:44;;;;;;;26.75;12.35;;;12.60;99.90;;;;;;5034690;28;20052;-82
2022/01/02 03:21:11;;;;;;;34.55;13.80;;;12.50;99.90;;;;;;5034773;28;20041;-82
2022/01/02 03:23:37;;;;;;;26.58;12.52;;;12.50;99.90;;;;;;5034891;28;20088;-82
2022/01/02 03:26:03;;;;;;;30.83;11.73;;;12.50;99.90;;;;;;5034841;28;20051;-82
2022/01/02 03:28:29;;;;;;;28.77;12.57;;;12.50;99.90;;;;;;5018336;28;20096;-82
2022/01/02 03:30:55;;;;;;;29.83;12.65;;;12.60;99.90;;;;;;5034438;28;20081;-82
2022/01/02 03:33:21;;;;;;;39.08;15.07;;;12.70;99.90;;;;;;5018295;28;20473;-82
2022/01/02 03:35:47;;;;;;;32.55;13.23;;;12.80;99.90;;;;;;5001773;28;20251;-82
2022/01/02 03:38:13;;;;;;;49.65;17.30;;;12.70;99.90;;;;;;5035206;28;20049;-82
2022/01/02 03:40:38;;;;;;;35.17;12.30;;;12.80;99.90;;;;;;5034587;28;20132;-82
2022/01/02 03:43:04;;;;;;;48.75;16.67;;;12.80;99.90;;;;;;5035056;28;20501;-82
2022/01/02 03:45:30;;;;;;;25.45;11.85;;;12.80;99.90;;;;;;5034135;28;20049;-83
2022/01/02 03:47:56;;;;;;;27.92;11.73;;;12.60;99.90;;;;;;5034780;28;20042;-82
2022/01/02 03:50:22;;;;;;;25.60;11.15;;;12.70;99.90;;;;;;5017911;28;20060;-82
2022/01/02 03:52:47;;;;;;;24.35;10.80;;;12.80;99.90;;;;;;5001167;28;20053;-82
2022/01/02 03:55:14;;;;;;;39.00;15.32;;;12.80;99.90;;;;;;5018392;28;20045;-83
2022/01/02 03:57:40;;;;;;;27.25;12.02;;;12.60;99.90;;;;;;5034243;28;20052;-82
2022/01/02 04:00:09;;;;;;;43.55;15.82;;;12.60;99.90;;;;;;5034187;28;20037;-82
2022/01/02 04:02:37;;;;;;;29.67;11.68;;;12.70;99.90;;;;;;5033954;28;20473;-82
2022/01/02 04:05:13;;;;;;;40.92;13.75;;;12.80;99.90;;;;;;5017402;28;20048;-82
2022/01/02 04:07:39;;;;;;;;;;;12.70;99.90;;;;;;5034683;28;20095;-82
2022/01/02 04:10:14;;;;;;;45.87;15.40;;;12.70;99.90;;;;;;5034477;28;20360;-82
2022/01/02 04:12:40;;;;;;;45.10;14.68;;;12.70;99.90;;;;;;5034372;28;20084;-82
2022/01/02 04:15:08;;;;;;;36.80;14.77;;;12.70;99.90;;;;;;5033718;28;20046;-83
2022/01/02 04:17:35;;;;;;;35.95;13.57;;;12.70;99.90;;;;;;5034083;28;20120;-83
2022/01/02 04:20:03;;;;;;;44.60;16.73;;;12.60;99.90;;;;;;5034389;28;20069;-82
2022/01/02 04:22:28;;;;;;;54.67;18.50;;;12.70;99.90;;;;;;5034131;28;20452;-82
2022/01/02 04:24:54;;;;;;;37.50;14.43;;;12.70;99.90;;;;;;5017733;28;20041;-82
2022/01/02 04:27:21;;;;;;;45.97;15.73;;;12.60;99.90;;;;;;5017451;28;20392;-82
2022/01/02 04:29:46;;;;;;;49.63;16.40;;;12.60;99.90;;;;;;5017669;28;20083;-82
2022/01/02 04:32:13;;;;;;;48.75;14.43;;;12.60;99.90;;;;;;5033609;28;20409;-82
2022/01/02 04:34:39;;;;;;;47.45;17.15;;;12.60;99.90;;;;;;5017257;28;20084;-82
2022/01/02 04:37:05;;;;;;;48.80;16.38;;;12.60;99.90;;;;;;5033658;28;20547;-81
2022/01/02 04:39:32;;;;;;;46.78;16.75;;;12.60;99.90;;;;;;5033457;28;20046;-82
2022/01/02 04:41:58;;;;;;;39.88;15.35;;;12.50;99.90;;;;;;5016665;28;20049;-81
2022/01/02 04:44:24;;;;;;;33.38;14.32;;;12.50;99.90;;;;;;5033614;28;20045;-82
2022/01/02 04:46:50;;;;;;;43.63;16.30;;;12.50;99.90;;;;;;5032851;28;20378;-82
2022/01/02 04:49:15;;;;;;;48.45;15.68;;;12.50;99.90;;;;;;5033788;28;20052;-82
2022/01/02 04:51:41;;;;;;;58.22;16.55;;;12.50;99.90;;;;;;5017674;28;20049;-82
2022/01/02 04:54:07;;;;;;;61.67;17.63;;;12.60;99.90;;;;;;5033850;28;20057;-82
2022/01/02 04:56:33;;;;;;;52.63;17.58;;;12.60;99.90;;;;;;5016901;28;20500;-82
2022/01/02 04:58:58;;;;;;;49.13;18.20;;;12.60;99.90;;;;;;5017511;28;20075;-82
2022/01/02 05:01:24;;;;;;;57.15;17.17;;;12.60;99.90;;;;;;5016746;28;20049;-82
2022/01/02 05:03:50;;;;;;;56.95;17.65;;;12.60;99.90;;;;;;5033739;28;20054;-81
2022/01/02 05:06:15;;;;;;;61.45;18.73;;;12.60;99.90;;;;;;5033494;28;20044;-81
2022/01/02 05:08:44;;;;;;;64.22;18.58;;;12.60;99.90;;;;;;5033836;28;20526;-81
2022/01/02 05:11:10;;;;;;;38.28;13.70;;;12.70;99.90;;;;;;5032235;28;20103;-82
2022/01/02 05:13:36;;;;;;;46.13;16.85;;;12.70;99.90;;;;;;5031621;28;20485;-81
2022/01/02 05:16:02;;;;;;;39.10;14.52;;;12.70;99.90;;;;;;5016053;28;20045;-82
2022/01/02 05:18:27;;;;;;;45.08;15.38;;;12.70;99.90;;;;;;5033415;28;20049;-81
2022/01/02 05:20:53;;;;;;;47.17;15.57;;;12.70;99.90;;;;;;5033283;28;20049;-81
2022/01/02 05:23:20;;;;;;;50.63;15.90;;;12.60;99.90;;;;;;5033413;28;20045;-81
2022/01/02 05:25:45;;;;;;;46.38;15.98;;;12.70;99.90;;;;;;5033616;28;20053;-81
2022/01/02 05:28:11;;;;;;;36.35;13.55;;;12.80;99.90;;;;;;5049882;28;20049;-81
2022/01/02 05:30:38;;;;;;;56.17;16.35;;;12.80;99.90;;;;;;5033241;28;20053;-82
2022/01/02 05:33:04;;;;;;;41.13;13.55;;;12.80;99.90;;;;;;5033161;28;20041;-81
2022/01/02 05:35:31;;;;;;;46.72;15.13;;;12.80;99.90;;;;;;5032924;28;20503;-81
2022/01/02 05:37:57;;;;;;;49.55;14.95;;;12.70;99.90;;;;;;5032844;28;20053;-81
2022/01/02 05:40:24;;;;;;;32.65;13.07;;;12.80;99.90;;;;;;5033243;28;20092;-81
2022/01/02 05:42:50;;;;;;;38.97;11.35;;;12.90;99.90;;;;;;5033556;28;20045;-81
2022/01/02 05:45:16;;;;;;;48.47;15.70;;;12.90;99.90;;;;;;5016481;28;20040;-82
2022/01/02 05:47:42;;;;;;;43.75;13.00;;;12.90;99.90;;;;;;5033059;28;20435;-81
2022/01/02 05:50:08;;;;;;;40.80;12.82;;;12.90;99.90;;;;;;5033537;28;20103;-81
2022/01/02 05:52:34;;;;;;;39.67;10.38;;;12.80;99.90;;;;;;5033636;28;20057;-81
2022/01/02 05:55:00;;;;;;;43.72;12.70;;;12.90;99.90;;;;;;5033081;28;20089;-81
2022/01/02 05:57:25;;;;;;;44.22;12.73;;;13.00;99.90;;;;;;5033057;28;20096;-81
2022/01/02 05:59:52;;;;;;;28.25;9.35;;;13.00;99.90;;;;;;5032467;28;20069;-81
2022/01/02 06:02:18;;;;;;;23.17;8.75;;;12.90;99.90;;;;;;5032470;28;20088;-81
2022/01/02 06:04:44;;;;;;;25.63;9.02;;;12.90;99.90;;;;;;5000468;28;20395;-81
2022/01/02 06:07:09;;;;;;;22.50;8.07;;;12.80;99.90;;;;;;5016656;28;20085;-81
2022/01/02 06:09:35;;;;;;;34.70;9.85;;;12.70;99.90;;;;;;5036528;28;20045;-81
2022/01/02 06:12:01;;;;;;;31.33;8.55;;;12.80;99.90;;;;;;5036874;28;20045;-81
2022/01/02 06:14:26;;;;;;;26.77;8.90;;;12.60;99.90;;;;;;5036856;28;20111;-81
2022/01/02 06:16:52;;;;;;;28.08;7.97;;;12.70;99.90;;;;;;5036157;28;20042;-81
2022/01/02 06:19:18;;;;;;;26.80;7.40;;;12.70;99.90;;;;;;5036402;28;20041;-81
2022/01/02 06:21:43;;;;;;;22.13;8.38;;;12.70;99.90;;;;;;5053401;28;20045;-81
2022/01/02 06:24:09;;;;;;;32.40;10.07;;;12.70;99.90;;;;;;5036827;28;20119;-81
2022/01/02 06:26:35;;;;;;;22.92;7.63;;;12.80;99.90;;;;;;5036486;28;20060;-81
2022/01/02 06:29:03;;;;;;;23.52;7.03;;;12.80;99.90;;;;;;5036725;28;20049;-81
2022/01/02 06:31:29;;;;;;;28.25;8.23;;;12.70;99.90;;;;;;5036338;28;20095;-81
2022/01/02 06:33:56;;;;;;;19.67;7.38;;;12.70;99.90;;;;;;5036252;28;20501;-81
2022/01/02 06:36:21;;;;;;;30.85;9.00;;;12.70;99.90;;;;;;5036313;28;20103;-82
2022/01/02 06:38:47;;;;;;;27.33;8.52;;;12.80;99.90;;;;;;5036103;28;20099;-82
2022/01/02 06:41:13;;;;;;;19.85;7.65;;;12.70;99.90;;;;;;5035991;28;20052;-81
2022/01/02 06:43:39;;;;;;;18.70;6.55;;;12.70;99.90;;;;;;5036095;28;20059;-81
2022/01/02 06:46:06;;;;;;;26.48;7.50;;;12.70;99.90;;;;;;5019288;28;20504;-82
2022/01/02 06:48:31;;;;;;;24.55;7.05;;;12.80;99.90;;;;;;5036079;28;20048;-82
2022/01/02 06:50:57;;;;;;;19.30;7.35;;;12.70;99.90;;;;;;5020036;28;20053;-81
2022/01/02 06:53:23;;;;;;;25.88;6.43;;;12.70;99.90;;;;;;5035807;28;20052;-81
2022/01/02 06:55:49;;;;;;;22.08;6.35;;;12.70;99.90;;;;;;5019594;28;20050;-82
2022/01/02 06:58:14;;;;;;;15.98;5.43;;;12.70;99.90;;;;;;5003190;28;20045;-81
2022/01/02 07:00:41;;;;;;;18.65;5.60;;;12.70;99.90;;;;;;5018740;28;20067;-81
2022/01/02 07:03:07;;;;;;;34.90;7.72;;;12.80;99.90;;;;;;5036121;28;20116;-81
2022/01/02 07:05:33;;;;;;;17.55;5.40;;;12.90;99.90;;;;;;5035744;28;20049;-82
2022/01/02 07:07:58;;;;;;;19.02;5.15;;;12.90;99.90;;;;;;5035879;28;20054;-82
2022/01/02 07:10:24;;;;;;;16.15;5.45;;;12.80;99.90;;;;;;5035846;28;20049;-81
2022/01/02 07:12:50;;;;;;;22.85;5.20;;;12.70;99.90;;;;;;5035794;28;20049;-81
2022/01/02 07:15:15;;;;;;;11.68;4.70;;;12.80;99.90;;;;;;5034744;28;20052;-82
2022/01/02 07:17:41;;;;;;;12.73;4.25;;;12.90;99.90;;;;;;5034903;28;20132;-82
2022/01/02 07:20:08;;;;;;;17.52;5.25;;;12.90;99.90;;;;;;5033914;28;20507;-81
2022/01/02 07:22:34;;;;;;;15.88;4.40;;;12.90;99.90;;;;;;5035316;28;20072;-81
2022/01/02 07:25:00;;;;;;;15.35;4.22;;;13.00;99.90;;;;;;5035134;28;20049;-81
2022/01/02 07:27:26;;;;;;;23.90;6.03;;;13.00;99.90;;;;;;5035272;28;20046;-81
2022/01/02 07:29:54;;;;;;;16.95;5.18;;;13.00;99.90;;;;;;5034740;28;20397;-81
2022/01/02 07:32:20;;;;;;;18.33;5.18;;;13.10;99.90;;;;;;5034882;28;20099;-82
2022/01/02 07:34:46;;;;;;;16.20;4.63;;;13.00;99.90;;;;;;5018803;28;20037;-81
2022/01/02 07:37:12;;;;;;;15.85;4.47;;;13.00;99.90;;;;;;5034884;28;20049;-82
2022/01/02 07:39:38;;;;;;;17.52;5.40;;;13.00;99.90;;;;;;5034446;28;20045;-82
2022/01/02 07:42:04;;;;;;;18.15;4.97;;;13.00;99.90;;;;;;5034517;28;20562;-81
2022/01/02 07:44:30;;;;;;;18.50;4.75;;;13.00;99.90;;;;;;5034931;28;20053;-81
2022/01/02 07:46:55;;;;;;;19.10;5.03;;;12.90;99.90;;;;;;5034642;28;20041;-82
2022/01/02 07:49:21;;;;;;;18.77;6.50;;;12.90;99.90;;;;;;5034731;28;20052;-81
2022/01/02 07:51:47;;;;;;;18.17;5.85;;;12.90;99.90;;;;;;5034716;28;20045;-81
2022/01/02 07:54:13;;;;;;;14.85;5.13;;;12.80;99.90;;;;;;5034929;28;20203;-81
2022/01/02 07:56:40;;;;;;;13.10;4.63;;;12.70;99.90;;;;;;5034731;28;20042;-82
2022/01/02 07:59:06;;;;;;;14.55;5.40;;;12.80;99.90;;;;;;5034778;28;20442;-78
2022/01/02 08:01:33;;;;;;;13.40;5.25;;;12.80;99.90;;;;;;5033998;28;20060;-75
2022/01/02 08:03:58;;;;;;;20.77;6.78;;;12.90;99.90;;;;;;5034115;28;20061;-76
2022/01/02 08:06:24;;;;;;;13.75;4.65;;;12.90;99.90;;;;;;5034466;28;20117;-78
2022/01/02 08:08:50;;;;;;;17.92;5.88;;;12.90;99.90;;;;;;5027925;28;20053;-78
2022/01/02 08:11:16;;;;;;;13.77;5.40;;;12.90;99.90;;;;;;5050304;28;20045;-79
2022/01/02 08:13:43;;;;;;;17.13;6.70;;;12.80;99.90;;;;;;5033915;28;20543;-79
2022/01/02 08:16:09;;;;;;;27.45;6.80;;;12.90;99.90;;;;;;5016874;28;20049;-78
2022/01/02 08:18:35;;;;;;;22.48;7.47;;;12.90;99.90;;;;;;5001047;28;20052;-79
2022/01/02 08:21:01;;;;;;;17.63;6.55;;;13.00;99.90;;;;;;5016629;28;20128;-80
2022/01/02 08:23:26;;;;;;;19.48;6.63;;;12.80;99.90;;;;;;5015154;28;20052;-79
2022/01/02 08:25:52;;;;;;;17.35;7.97;;;12.80;99.90;;;;;;5030161;28;20045;-81
2022/01/02 08:28:19;;;;;;;21.55;7.93;;;12.80;99.90;;;;;;5029970;28;20058;-81
2022/01/02 08:30:45;;;;;;;27.67;8.10;;;12.80;99.90;;;;;;5039511;28;20060;-79
2022/01/02 08:33:11;;;;;;;19.48;7.78;;;12.80;99.90;;;;;;5030056;28;20111;-79
2022/01/02 08:35:37;;;;;;;19.35;6.75;;;12.80;99.90;;;;;;5013310;28;20049;-80
2022/01/02 08:38:03;;;;;;;18.92;8.02;;;12.70;99.90;;;;;;5032275;28;20048;-81
2022/01/02 08:40:29;;;;;;;16.27;7.32;;;12.60;99.90;;;;;;5032334;28;20049;-81
2022/01/02 08:42:55;;;;;;;22.80;7.65;;;12.70;99.90;;;;;;5016918;28;20049;-81
2022/01/02 08:45:21;;;;;;;17.88;7.65;;;12.70;99.90;;;;;;5032703;28;20495;-80
2022/01/02 08:47:46;;;;;;;24.40;7.88;;;12.60;99.90;;;;;;5032958;28;20396;-80
2022/01/02 08:50:12;;;;;;;29.00;8.80;;;12.60;99.90;;;;;;4999955;28;20053;-79
2022/01/02 08:52:38;;;;;;;23.10;8.27;;;12.50;99.90;;;;;;5000123;28;20057;-80
2022/01/02 08:55:05;;;;;;;17.30;7.40;;;12.50;99.90;;;;;;5032612;28;20132;-80
2022/01/02 08:57:30;;;;;;;21.20;8.52;;;12.60;99.90;;;;;;5048846;28;20046;-80
2022/01/02 08:59:56;;;;;;;29.27;9.48;;;12.60;99.90;;;;;;5040814;28;20045;-76
2022/01/02 09:02:22;;;;;;;20.80;8.63;;;12.50;99.90;;;;;;5012673;28;20437;-78
2022/01/02 09:04:47;;;;;;;27.27;10.20;;;12.50;99.90;;;;;;5013460;28;20042;-78
2022/01/02 09:07:13;;;;;;;19.88;9.60;;;12.50;99.90;;;;;;4996932;28;20103;-79
2022/01/02 09:09:40;;;;;;;23.08;10.15;;;12.40;99.90;;;;;;5013207;28;20112;-79
2022/01/02 09:12:07;;;;;;;17.98;9.73;;;12.40;99.90;;;;;;5013083;28;20485;-79
2022/01/02 09:14:32;;;;;;;21.30;10.00;;;12.40;99.90;;;;;;5003078;28;20705;-80
2022/01/02 09:16:58;;;;;;;24.15;9.80;;;12.50;99.90;;;;;;5029505;28;20120;-80
2022/01/02 09:19:24;;;;;;;19.08;8.45;;;12.50;99.90;;;;;;5029828;28;20408;-81
2022/01/02 09:21:50;;;;;;;23.17;9.45;;;12.50;99.90;;;;;;5030837;28;20030;-78
2022/01/02 09:24:16;;;;;;;26.58;10.27;;;12.50;99.90;;;;;;5031886;28;20525;-78
2022/01/02 09:26:43;;;;;;;19.40;9.35;;;12.50;99.90;;;;;;5034532;28;20072;-75
2022/01/02 09:29:09;;;;;;;25.30;10.00;;;12.40;99.90;;;;;;5039275;28;20404;-76
2022/01/02 09:31:35;;;;;;;24.88;10.43;;;12.40;99.90;;;;;;5034240;28;20053;-76
2022/01/02 09:34:01;;;;;;;22.05;10.95;;;12.40;99.90;;;;;;5032753;28;20060;-76
2022/01/02 09:36:27;;;;;;;26.55;10.98;;;12.40;99.90;;;;;;5032348;28;20103;-77
2022/01/02 09:38:54;;;;;;;20.30;10.63;;;12.40;99.90;;;;;;5049318;28;20056;-77
2022/01/02 09:41:20;;;;;;;24.63;12.20;;;12.40;99.90;;;;;;5049036;28;20060;-76
2022/01/02 09:43:47;;;;;;;24.73;11.10;;;12.40;99.90;;;;;;5018256;28;20481;-76
2022/01/02 09:46:21;;;;;;;31.75;13.07;;;12.40;99.90;;;;;;5052601;28;20045;-76
2022/01/02 09:48:48;;;;;;;28.80;12.93;;;12.50;99.90;;;;;;5036553;28;20049;-76
2022/01/02 09:51:16;;;;;;;30.10;12.70;;;12.50;99.90;;;;;;5036827;28;20057;-76
2022/01/02 09:53:44;;;;;;;36.67;14.05;;;12.50;99.90;;;;;;5052939;28;20128;-75
2022/01/02 09:56:10;;;;;;;31.30;11.25;;;12.50;99.90;;;;;;5054317;28;20057;-77
2022/01/02 09:58:36;;;;;;;36.22;12.20;;;12.60;99.90;;;;;;5036006;28;20063;-75
2022/01/02 10:01:02;;;;;;;27.27;13.45;;;12.60;99.90;;;;;;5018999;28;20057;-75
2022/01/02 10:03:41;;;;;;;30.63;12.25;;;12.50;99.90;;;;;;5036066;28;20065;-75
2022/01/02 10:06:07;;;;;;;28.75;12.38;;;12.50;99.90;;;;;;5053447;28;20049;-78
2022/01/02 10:08:34;;;;;;;30.50;13.10;;;12.50;99.90;;;;;;5038835;28;20491;-73
2022/01/02 10:11:24;;;;;;;24.33;10.13;;;12.50;99.90;;;;;;5052569;28;20123;-77
2022/01/02 10:13:54;;;;;;;26.95;10.82;;;12.40;99.90;;;;;;5036428;28;20381;-83
2022/01/02 10:16:34;;;;;;;30.67;12.73;;;12.50;99.90;;;;;;5035628;28;20045;-75
2022/01/02 10:19:21;;;;;;;26.00;12.77;;;12.50;99.90;;;;;;5036313;28;20473;-78
2022/01/02 10:21:58;;;;;;;32.72;15.35;;;12.50;99.90;;;;;;5036493;28;20542;-80
2022/01/02 10:24:27;;;;;;;28.42;13.50;;;12.40;99.90;;;;;;5035960;28;20077;-79
2022/01/02 10:27:12;;;;;;;25.55;14.10;;;12.40;99.90;;;;;;5037353;28;20396;-76
2022/01/02 10:29:40;;;;;;;24.98;16.13;;;12.40;99.90;;;;;;5052763;28;20049;-77
2022/01/02 10:32:26;;;;;;;28.45;17.30;;;12.40;99.90;;;;;;5052395;28;20512;-74
2022/01/02 10:34:53;;;;;;;29.40;16.63;;;12.40;99.90;;;;;;5035388;28;20053;-80
2022/01/02 10:37:26;;;;;;;28.73;16.63;;;12.40;99.90;;;;;;5036168;28;20060;-80
2022/01/02 10:39:52;;;;;;;32.63;18.20;;;12.40;99.90;;;;;;5019758;28;20054;-80
2022/01/02 10:42:19;;;;;;;26.20;16.08;;;12.30;99.90;;;;;;5035784;28;20492;-80
2022/01/02 10:44:46;;;;;;;31.92;16.88;;;12.30;99.90;;;;;;5035889;28;20053;-80
2022/01/02 10:47:16;;;;;;;29.10;15.70;;;12.30;99.90;;;;;;5035359;28;20053;-80
2022/01/02 10:50:04;;;;;;;29.85;15.05;;;12.30;99.90;;;;;;5046405;28;20061;-80
2022/01/02 10:52:41;;;;;;;38.40;17.00;;;12.30;99.90;;;;;;5018590;28;20046;-75
2022/01/02 10:55:15;;;;;;;25.85;14.35;;;12.30;99.90;;;;;;5042510;28;20125;-78
2022/01/02 10:57:42;;;;;;;33.03;15.23;;;12.30;99.90;;;;;;5015385;28;20042;-76
2022/01/02 11:00:10;;;;;;;26.65;12.48;;;12.30;99.90;;;;;;5029657;28;20072;-82
2022/01/02 11:02:37;;;;;;;25.50;12.70;;;12.30;99.90;;;;;;5014749;28;20053;-79
2022/01/02 11:05:07;;;;;;;25.83;12.45;;;12.30;99.90;;;;;;5031894;28;20555;-77
2022/01/02 11:07:40;;;;;;;24.40;10.52;;;12.30;99.90;;;;;;5017692;28;20053;-74
2022/01/02 11:10:07;;;;;;;21.30;9.27;;;12.30;99.90;;;;;;5018321;28;20048;-78
2022/01/02 11:12:32;;;;;;;23.85;10.18;;;12.20;99.90;;;;;;5018770;28;20049;-78
2022/01/02 11:14:59;;;;;;;22.00;8.73;;;12.20;99.90;;;;;;5035185;28;20045;-78
2022/01/02 11:17:25;;;;;;;23.55;8.93;;;12.10;99.90;;;;;;5017738;28;20046;-79
2022/01/02 11:19:52;;;;;;;17.83;7.82;;;12.10;99.90;;;;;;5034363;28;20357;-79
2022/01/02 11:22:33;;;;;;;24.90;7.97;;;12.20;99.90;;;;;;5034710;28;20068;-78
2022/01/02 11:25:07;;;;;;;16.33;7.03;;;12.20;99.90;;;;;;5034428;28;20052;-79
2022/01/02 11:27:52;;;;;;;16.70;7.00;;;12.20;99.90;;;;;;5034664;28;20057;-78
2022/01/02 11:30:30;;;;;;;26.58;6.93;;;12.20;99.90;;;;;;5034425;28;20515;-78
2022/01/02 11:33:13;;;;;;;17.38;6.47;;;12.20;99.90;;;;;;5034074;28;20477;-78
2022/01/02 11:35:42;;;;;;;18.08;6.30;;;12.20;99.90;;;;;;5034773;28;20064;-78
2022/01/02 11:38:09;;;;;;;20.15;7.13;;;12.30;99.90;;;;;;5034320;28;20049;-79
2022/01/02 11:40:45;;;;;;;21.23;6.18;;;12.30;99.90;;;;;;5034098;28;20519;-78
2022/01/02 11:43:30;;;;;;;;;;;12.30;99.90;;;;;;5034819;28;20053;-78
2022/01/02 11:46:14;;;;;;;18.77;5.80;;;12.30;99.90;;;;;;5066609;28;19921;-78
2022/01/02 11:48:40;;;;;;;17.08;5.45;;;12.20;99.90;;;;;;5034034;28;20128;-78
2022/01/02 11:51:06;;;;;;;20.70;5.40;;;12.20;99.90;;;;;;5034261;28;20140;-78
2022/01/02 11:53:35;;;;;;;14.68;5.55;;;12.20;99.90;;;;;;5017496;28;20091;-78
2022/01/02 11:56:01;;;;;;;14.70;4.75;;;12.30;99.90;;;;;;5033873;28;20065;-77
2022/01/02 11:58:44;;;;;;;14.68;6.10;;;12.20;99.90;;;;;;5017442;28;20057;-77
2022/01/02 12:01:10;;;;;;;14.00;4.82;;;12.20;99.90;;;;;;5033757;28;20061;-77
2022/01/02 12:03:42;;;;;;;14.25;4.72;;;12.10;99.90;;;;;;5033708;28;20064;-78
2022/01/02 12:06:18;;;;;;;18.02;5.20;;;12.10;99.90;;;;;;5033306;28;20048;-77
2022/01/02 12:08:44;;;;;;;;;;;12.10;99.90;;;;;;5034383;28;20049;-77
2022/01/02 12:11:32;;;;;;;18.87;5.03;;;12.10;99.90;;;;;;5033651;28;20283;-77
2022/01/02 12:14:11;;;;;;;23.45;4.90;;;12.10;99.90;;;;;;5033466;28;20049;-78
2022/01/02 12:16:42;;;;;;;14.90;4.20;;;12.10;99.90;;;;;;5033012;28;20096;-78
2022/01/02 12:19:09;;;;;;;18.25;5.18;;;12.10;99.90;;;;;;5033045;28;20065;-78
2022/01/02 12:21:36;;;;;;;21.13;4.25;;;12.10;99.90;;;;;;5033448;28;20060;-77
2022/01/02 12:24:07;;;;;;;19.30;4.60;;;12.00;99.90;;;;;;5033620;28;20076;-77
2022/01/02 12:26:39;;;;;;;15.38;3.97;;;12.10;99.90;;;;;;5033427;28;20045;-77
2022/01/02 12:29:12;;;;;;;24.60;4.68;;;12.00;99.90;;;;;;5033358;28;20064;-77
2022/01/02 12:31:45;;;;;;;23.83;4.28;;;12.10;99.90;;;;;;5033351;28;20049;-77
2022/01/02 12:34:10;;;;;;;21.50;3.85;;;12.00;99.90;;;;;;5033102;28;20049;-77
2022/01/02 12:36:40;;;;;;;14.82;3.40;;;12.00;99.90;;;;;;5016591;28;20057;-77
2022/01/02 12:39:28;;;;;;;23.33;3.95;;;12.00;99.90;;;;;;5033094;28;20190;-77
2022/01/02 12:42:14;;;;;;;18.85;3.28;;;12.00;99.90;;;;;;5032983;28;20373;-77
2022/01/02 12:44:40;;;;;;;17.92;4.13;;;12.00;99.90;;;;;;5033183;28;20060;-77